sensor_id;sensor_type;location;lat;lon;timestamp;temperature;humidity
30467;DHT22;17258;52.560;13.046;2022-09-12T00:02:45;19.10;60.10
30467;DHT22;17258;52.560;13.046;2022-09-12T00:12:46;19.00;60.10
30467;DHT22;17258;52.560;13.046;2022-09-12T00:22:47;18.80;60.10
30467;DHT22;17258;52.560;13.046;2022-09-12T00:32:48;18.60;60.10
30467;DHT22;17258;52.560;13.046;2022-09-12T00:42:49;18.50;60.10
30467;DHT22;17258;52.560;13.046;2022-09-12T00:53:05;18.30;60.10
30467;DHT22;17258;52.560;13.046;2022-09-12T01:03:09;18.10;60.50
30467;DHT22;17258;52.560;13.046;2022-09-12T01:13:12;18.00;60.20
30467;DHT22;17258;52.560;13.046;2022-09-12T01:34:48;17.70;60.70
30467;DHT22;17258;52.560;13.046;2022-09-12T01:45:21;17.50;60.70
30467;DHT22;17258;52.560;13.046;2022-09-12T01:55:24;17.40;60.50
30467;DHT22;17258;52.560;13.046;2022-09-12T02:05:32;17.30;60.40
30467;DHT22;17258;52.560;13.046;2022-09-12T02:15:45;17.20;60.60
30467;DHT22;17258;52.560;13.046;2022-09-12T02:25:54;17.00;60.50
30467;DHT22;17258;52.560;13.046;2022-09-12T02:36:16;16.90;60.80
30467;DHT22;17258;52.560;13.046;2022-09-12T02:46:38;16.70;60.80
30467;DHT22;17258;52.560;13.046;2022-09-12T02:56:43;16.60;60.80
30467;DHT22;17258;52.560;13.046;2022-09-12T03:27:36;16.40;61.00
30467;DHT22;17258;52.560;13.046;2022-09-12T03:37:39;16.30;61.00
30467;DHT22;17258;52.560;13.046;2022-09-12T03:47:39;16.20;60.80
30467;DHT22;17258;52.560;13.046;2022-09-12T03:57:40;16.10;60.80
30467;DHT22;17258;52.560;13.046;2022-09-12T04:07:41;16.00;60.80
30467;DHT22;17258;52.560;13.046;2022-09-12T04:17:41;15.90;60.80
30467;DHT22;17258;52.560;13.046;2022-09-12T04:27:42;15.80;60.90
30467;DHT22;17258;52.560;13.046;2022-09-12T04:37:43;15.70;60.80
30467;DHT22;17258;52.560;13.046;2022-09-12T04:47:43;15.70;61.00
30467;DHT22;17258;52.560;13.046;2022-09-12T04:57:45;15.60;60.90
30467;DHT22;17258;52.560;13.046;2022-09-12T05:07:46;15.50;61.00
30467;DHT22;17258;52.560;13.046;2022-09-12T05:17:47;15.50;61.10
30467;DHT22;17258;52.560;13.046;2022-09-12T05:27:51;15.40;61.20
30467;DHT22;17258;52.560;13.046;2022-09-12T05:37:52;15.40;61.40
30467;DHT22;17258;52.560;13.046;2022-09-12T05:47:53;15.40;61.40
30467;DHT22;17258;52.560;13.046;2022-09-12T05:57:53;15.40;61.70
30467;DHT22;17258;52.560;13.046;2022-09-12T06:07:54;15.50;62.10
30467;DHT22;17258;52.560;13.046;2022-09-12T06:17:55;15.60;62.40
30467;DHT22;17258;52.560;13.046;2022-09-12T06:27:55;15.80;62.70
30467;DHT22;17258;52.560;13.046;2022-09-12T06:37:57;15.90;63.00
30467;DHT22;17258;52.560;13.046;2022-09-12T06:47:58;16.10;63.30
30467;DHT22;17258;52.560;13.046;2022-09-12T06:57:58;16.40;63.60
30467;DHT22;17258;52.560;13.046;2022-09-12T07:07:59;16.70;63.90
30467;DHT22;17258;52.560;13.046;2022-09-12T07:17:59;17.00;64.00
30467;DHT22;17258;52.560;13.046;2022-09-12T07:28:00;17.20;63.90
30467;DHT22;17258;52.560;13.046;2022-09-12T07:38:01;17.50;64.10
30467;DHT22;17258;52.560;13.046;2022-09-12T07:48:02;17.80;64.30
30467;DHT22;17258;52.560;13.046;2022-09-12T07:58:03;18.10;64.40
30467;DHT22;17258;52.560;13.046;2022-09-12T08:08:03;18.40;64.60
30467;DHT22;17258;52.560;13.046;2022-09-12T08:18:04;18.70;64.50
30467;DHT22;17258;52.560;13.046;2022-09-12T08:28:05;18.90;64.50
30467;DHT22;17258;52.560;13.046;2022-09-12T08:38:06;19.20;64.40
30467;DHT22;17258;52.560;13.046;2022-09-12T08:48:09;19.50;64.20
30467;DHT22;17258;52.560;13.046;2022-09-12T08:58:20;19.70;64.00
30467;DHT22;17258;52.560;13.046;2022-09-12T09:18:32;20.10;63.40
30467;DHT22;17258;52.560;13.046;2022-09-12T09:28:41;20.20;63.00
30467;DHT22;17258;52.560;13.046;2022-09-12T09:39:03;20.30;62.90
30467;DHT22;17258;52.560;13.046;2022-09-12T09:49:06;20.50;62.70
30467;DHT22;17258;52.560;13.046;2022-09-12T09:59:19;20.70;62.60
30467;DHT22;17258;52.560;13.046;2022-09-12T10:09:33;20.90;62.30
30467;DHT22;17258;52.560;13.046;2022-09-12T10:19:37;21.00;61.90
30467;DHT22;17258;52.560;13.046;2022-09-12T10:29:53;21.20;62.10
30467;DHT22;17258;52.560;13.046;2022-09-12T10:39:57;21.40;61.70
30467;DHT22;17258;52.560;13.046;2022-09-12T10:50:18;21.60;61.90
30467;DHT22;17258;52.560;13.046;2022-09-12T11:00:20;21.90;60.90
30467;DHT22;17258;52.560;13.046;2022-09-12T11:10:46;22.10;61.30
30467;DHT22;17258;52.560;13.046;2022-09-12T11:21:13;22.30;60.20
30467;DHT22;17258;52.560;13.046;2022-09-12T11:31:40;22.60;59.70
30467;DHT22;17258;52.560;13.046;2022-09-12T11:41:59;22.90;60.00
30467;DHT22;17258;52.560;13.046;2022-09-12T12:02:25;23.70;60.80
30467;DHT22;17258;52.560;13.046;2022-09-12T12:12:27;24.20;58.80
30467;DHT22;17258;52.560;13.046;2022-09-12T12:22:28;24.50;58.80
30467;DHT22;17258;52.560;13.046;2022-09-12T12:32:30;24.70;58.80
30467;DHT22;17258;52.560;13.046;2022-09-12T12:52:52;25.20;57.60
30467;DHT22;17258;52.560;13.046;2022-09-12T13:13:06;25.50;56.80
30467;DHT22;17258;52.560;13.046;2022-09-12T13:23:20;25.60;57.10
30467;DHT22;17258;52.560;13.046;2022-09-12T13:43:48;26.00;56.50
30467;DHT22;17258;52.560;13.046;2022-09-12T13:53:49;26.10;56.60
30467;DHT22;17258;52.560;13.046;2022-09-12T14:03:52;26.20;56.50
30467;DHT22;17258;52.560;13.046;2022-09-12T14:14:31;26.40;56.30
30467;DHT22;17258;52.560;13.046;2022-09-12T14:24:34;26.50;55.50
30467;DHT22;17258;52.560;13.046;2022-09-12T14:34:35;26.50;56.10
30467;DHT22;17258;52.560;13.046;2022-09-12T14:44:36;26.50;55.50
30467;DHT22;17258;52.560;13.046;2022-09-12T14:54:38;26.50;55.40
30467;DHT22;17258;52.560;13.046;2022-09-12T15:04:41;26.50;55.00
30467;DHT22;17258;52.560;13.046;2022-09-12T15:14:45;26.50;54.80
30467;DHT22;17258;52.560;13.046;2022-09-12T15:24:46;26.40;54.60
30467;DHT22;17258;52.560;13.046;2022-09-12T15:34:47;26.30;54.70
30467;DHT22;17258;52.560;13.046;2022-09-12T15:44:47;26.30;54.80
30467;DHT22;17258;52.560;13.046;2022-09-12T15:54:48;26.20;54.80
30467;DHT22;17258;52.560;13.046;2022-09-12T16:04:49;26.10;54.60
30467;DHT22;17258;52.560;13.046;2022-09-12T16:14:53;26.00;54.40
30467;DHT22;17258;52.560;13.046;2022-09-12T16:24:54;25.90;54.40
30467;DHT22;17258;52.560;13.046;2022-09-12T16:34:55;25.80;54.50
30467;DHT22;17258;52.560;13.046;2022-09-12T16:44:55;25.70;54.50
30467;DHT22;17258;52.560;13.046;2022-09-12T16:54:56;25.50;54.40
30467;DHT22;17258;52.560;13.046;2022-09-12T17:04:57;25.30;54.30
30467;DHT22;17258;52.560;13.046;2022-09-12T17:14:57;25.20;54.30
30467;DHT22;17258;52.560;13.046;2022-09-12T17:24:58;25.00;54.30
30467;DHT22;17258;52.560;13.046;2022-09-12T17:34:58;24.70;54.30
30467;DHT22;17258;52.560;13.046;2022-09-12T17:44:59;24.50;54.30
30467;DHT22;17258;52.560;13.046;2022-09-12T17:55:00;24.30;54.40
30467;DHT22;17258;52.560;13.046;2022-09-12T18:05:01;24.00;54.30
30467;DHT22;17258;52.560;13.046;2022-09-12T18:15:04;23.70;54.40
30467;DHT22;17258;52.560;13.046;2022-09-12T18:25:06;23.40;54.50
30467;DHT22;17258;52.560;13.046;2022-09-12T18:35:07;23.10;54.50
30467;DHT22;17258;52.560;13.046;2022-09-12T18:45:08;22.80;54.60
30467;DHT22;17258;52.560;13.046;2022-09-12T18:55:09;22.50;54.80
30467;DHT22;17258;52.560;13.046;2022-09-12T19:05:10;22.20;54.90
30467;DHT22;17258;52.560;13.046;2022-09-12T19:15:12;21.90;55.10
30467;DHT22;17258;52.560;13.046;2022-09-12T19:25:12;21.60;55.30
30467;DHT22;17258;52.560;13.046;2022-09-12T19:35:13;21.40;55.50
30467;DHT22;17258;52.560;13.046;2022-09-12T19:45:14;21.10;55.60
30467;DHT22;17258;52.560;13.046;2022-09-12T19:55:14;20.90;55.80
30467;DHT22;17258;52.560;13.046;2022-09-12T20:05:15;20.70;55.90
30467;DHT22;17258;52.560;13.046;2022-09-12T20:15:16;20.40;56.00
30467;DHT22;17258;52.560;13.046;2022-09-12T20:25:17;20.30;56.20
30467;DHT22;17258;52.560;13.046;2022-09-12T20:35:19;20.10;56.40
30467;DHT22;17258;52.560;13.046;2022-09-12T20:45:19;19.90;56.50
30467;DHT22;17258;52.560;13.046;2022-09-12T20:55:20;19.70;56.50
30467;DHT22;17258;52.560;13.046;2022-09-12T21:05:21;19.60;56.70
30467;DHT22;17258;52.560;13.046;2022-09-12T21:15:21;19.40;56.70
30467;DHT22;17258;52.560;13.046;2022-09-12T21:25:22;19.30;56.90
30467;DHT22;17258;52.560;13.046;2022-09-12T21:35:23;19.20;57.00
30467;DHT22;17258;52.560;13.046;2022-09-12T21:45:24;19.00;57.00
30467;DHT22;17258;52.560;13.046;2022-09-12T21:55:24;18.90;57.10
30467;DHT22;17258;52.560;13.046;2022-09-12T22:05:26;18.80;57.20
30467;DHT22;17258;52.560;13.046;2022-09-12T22:15:29;18.70;57.30
30467;DHT22;17258;52.560;13.046;2022-09-12T22:25:29;18.60;57.40
30467;DHT22;17258;52.560;13.046;2022-09-12T22:35:30;18.40;57.30
30467;DHT22;17258;52.560;13.046;2022-09-12T22:45:31;18.30;57.40
30467;DHT22;17258;52.560;13.046;2022-09-12T22:55:31;18.20;57.50
30467;DHT22;17258;52.560;13.046;2022-09-12T23:05:32;18.10;58.30
30467;DHT22;17258;52.560;13.046;2022-09-12T23:15:33;18.00;57.60
30467;DHT22;17258;52.560;13.046;2022-09-12T23:25:33;17.90;57.70
30467;DHT22;17258;52.560;13.046;2022-09-12T23:35:34;17.80;57.80
30467;DHT22;17258;52.560;13.046;2022-09-12T23:45:35;17.80;57.90
30467;DHT22;17258;52.560;13.046;2022-09-12T23:55:36;17.60;58.00
